Time;durP1;ratioP1;P1;durP2;ratioP2;P2;SDS_P1;SDS_P2;PMS_P1;PMS_P2;Temp;Humidity;BMP_temperature;BMP_pressure;BME280_temperature;BME280_humidity;BME280_pressure;Samples;Min_cycle;Max_cycle;Signal;HPM_P1;HPM_P2
2022/01/02 00:02:09;;;;;;;19.40;10.05;;;;;;;13.00;84.09;100903.78;2839254;84;21014;-70
2022/01/02 00:06:14;;;;;;;25.35;11.18;;;;;;;12.94;83.80;100900.28;2890026;82;20990;-69
2022/01/02 00:10:20;;;;;;;29.00;15.15;;;;;;;12.92;83.82;100903.57;2845854;82;20981;-71
2022/01/02 00:14:25;;;;;;;19.32;12.30;;;;;;;12.86;83.44;100894.23;2889303;82;20996;-71
2022/01/02 00:18:28;;;;;;;22.67;12.68;;;;;;;12.77;83.05;100893.17;2889347;82;21003;-70
2022/01/02 00:22:35;;;;;;;17.62;10.35;;;;;;;12.68;82.90;100886.76;2839645;82;21010;-70
2022/01/02 00:26:39;;;;;;;28.85;17.07;;;;;;;12.56;82.87;100851.24;2856020;81;21353;-71
2022/01/02 00:30:40;;;;;;;21.17;15.53;;;;;;;12.43;82.93;100844.73;2835201;84;21018;-71
2022/01/02 00:34:42;;;;;;;25.17;12.07;;;;;;;12.32;83.06;100831.39;2838601;82;21522;-70
2022/01/02 00:38:43;;;;;;;20.17;9.63;;;;;;;12.23;82.97;100830.31;2890050;82;21033;-70
2022/01/02 00:42:53;;;;;;;16.07;9.18;;;;;;;12.17;83.01;100828.62;2863559;82;21104;-71
2022/01/02 00:47:21;;;;;;;16.93;9.90;;;;;;;12.13;82.93;100832.88;2833464;82;21042;-71
2022/01/02 00:51:49;;;;;;;19.77;11.20;;;;;;;12.09;82.57;100830.59;2808340;84;21677;-71
2022/01/02 00:55:56;;;;;;;15.65;8.05;;;;;;;11.99;82.15;100822.45;2797266;82;21014;-71
2022/01/02 01:00:14;;;;;;;27.52;11.95;;;;;;;11.86;82.51;100818.08;2810658;84;21021;-69
2022/01/02 01:04:17;;;;;;;23.42;13.32;;;;;;;11.77;82.64;100824.61;2796070;84;21538;-70
2022/01/02 01:08:22;;;;;;;25.00;13.50;;;;;;;11.68;82.58;100804.86;2785126;85;21102;-71
2022/01/02 01:12:24;;;;;;;31.55;16.60;;;;;;;11.63;82.68;100816.37;2785400;85;21101;-71
2022/01/02 01:16:26;;;;;;;33.18;18.45;;;;;;;11.55;82.54;100811.14;2785493;84;21089;-71
2022/01/02 01:20:34;;;;;;;48.55;27.50;;;;;;;11.28;83.47;100791.02;2793430;82;20993;-71
2022/01/02 01:24:36;;;;;;;42.78;24.63;;;;;;;11.07;84.18;100784.67;2804029;84;21025;-71
2022/01/02 01:28:38;;;;;;;50.00;27.20;;;;;;;11.00;84.34;100795.80;2837207;84;21020;-70
2022/01/02 01:32:40;;;;;;;55.30;27.73;;;;;;;10.93;84.41;100789.22;2837040;84;21037;-70
2022/01/02 01:36:41;;;;;;;50.85;29.55;;;;;;;10.78;85.21;100782.37;2837275;84;21025;-71
2022/01/02 01:40:54;;;;;;;46.37;26.07;;;;;;;10.59;85.76;100786.91;2836441;82;21096;-70
2022/01/02 01:45:42;;;;;;;46.05;26.75;;;;;;;10.49;86.02;100777.43;2827165;84;21069;-68
2022/01/02 01:49:00;;;;;;;52.58;27.05;;;;;;;10.28;87.17;100778.84;2819270;84;21602;-70
2022/01/02 01:53:04;;;;;;;52.00;29.50;;;;;;;10.23;86.69;100772.19;2816281;82;21045;-70
2022/01/02 01:57:06;;;;;;;45.05;25.85;;;;;;;10.27;86.73;100774.98;2799879;84;21038;-70
2022/01/02 02:01:08;;;;;;;32.35;19.77;;;;;;;10.38;86.65;100777.69;2832302;84;21062;-71
2022/01/02 02:05:10;;;;;;;49.33;25.90;;;;;;;10.48;86.02;100771.74;2832681;84;21045;-68
2022/01/02 02:09:13;;;;;;;17.62;10.75;;;;;;;10.54;85.66;100773.47;2832545;84;21037;-68
2022/01/02 02:13:15;;;;;;;17.10;10.55;;;;;;;10.40;85.80;100763.83;2832479;84;21081;-68
2022/01/02 02:17:18;;;;;;;17.82;11.78;;;;;;;9.89;88.21;100748.87;2832238;84;21010;-68
2022/01/02 02:21:36;;;;;;;18.98;12.15;;;;;;;9.62;89.31;100741.91;2832348;84;21026;-69
2022/01/02 02:25:38;;;;;;;23.73;14.65;;;;;;;9.43;90.24;100733.05;2832198;84;21085;-68
2022/01/02 02:29:42;;;;;;;29.15;18.48;;;;;;;9.27;91.00;100735.47;2832249;84;21014;-68
2022/01/02 02:33:45;;;;;;;35.38;14.85;;;;;;;9.23;91.01;100716.70;2832103;84;21074;-68
2022/01/02 02:37:48;;;;;;;32.33;18.60;;;;;;;9.17;90.38;100698.56;2831991;84;21061;-68
2022/01/02 02:41:50;;;;;;;34.10;19.12;;;;;;;9.10;91.92;100682.70;2829705;84;21066;-68
2022/01/02 02:50:07;;;;;;;26.82;18.48;;;;;;;9.20;92.17;100675.78;2813312;84;20999;-68
2022/01/02 02:54:10;;;;;;;32.53;20.30;;;;;;;9.09;92.87;100665.92;2813552;84;21026;-68
2022/01/02 03:02:28;;;;;;;24.50;14.93;;;;;;;9.03;92.03;100634.51;2813470;84;21365;-68
2022/01/02 03:06:30;;;;;;;26.87;15.48;;;;;;;9.04;91.73;100612.78;2813142;84;21026;-68
2022/01/02 03:10:32;;;;;;;22.37;14.25;;;;;;;8.88;92.28;100609.04;2813154;84;21034;-68
2022/01/02 03:14:34;;;;;;;25.92;14.60;;;;;;;8.81;92.31;100607.28;2813078;84;21097;-68
2022/01/02 03:18:36;;;;;;;22.30;13.22;;;;;;;8.78;93.25;100589.80;2813308;84;21003;-68
2022/01/02 03:22:39;;;;;;;19.37;12.65;;;;;;;8.82;93.86;100576.69;2813161;84;21050;-68
2022/01/02 03:26:41;;;;;;;20.65;12.05;;;;;;;8.92;94.38;100574.23;2813082;84;21023;-68
2022/01/02 03:30:43;;;;;;;17.98;10.95;;;;;;;8.93;94.64;100570.62;2812969;84;21077;-68
2022/01/02 03:34:45;;;;;;;18.48;12.88;;;;;;;8.95;94.83;100563.90;2827049;83;21061;-68
2022/01/02 03:38:49;;;;;;;17.17;11.55;;;;;;;9.03;94.47;100552.25;2870244;82;20987;-68
2022/01/02 03:42:53;;;;;;;17.90;12.07;;;;;;;9.00;94.18;100542.69;2859838;82;21021;-68
2022/01/02 03:46:55;;;;;;;18.10;13.85;;;;;;;8.96;94.39;100525.30;2836949;84;21005;-68
2022/01/02 03:50:57;;;;;;;20.57;13.78;;;;;;;8.91;94.44;100505.35;2787175;85;21078;-68
2022/01/02 03:54:59;;;;;;;21.07;13.43;;;;;;;8.81;94.70;100486.13;2837026;84;21332;-67
2022/01/02 03:59:02;;;;;;;21.57;15.40;;;;;;;8.82;94.69;100483.84;2836828;84;21002;-68
2022/01/02 04:03:04;;;;;;;15.48;12.88;;;;;;;8.90;94.16;100480.64;2836913;84;21013;-67
2022/01/02 04:07:06;;;;;;;24.12;15.35;;;;;;;8.91;93.98;100479.69;2787206;85;20975;-67
2022/01/02 04:11:07;;;;;;;15.63;10.98;;;;;;;9.03;93.31;100489.89;2836951;84;21013;-68
2022/01/02 04:15:11;;;;;;;18.82;12.20;;;;;;;9.09;92.81;100484.13;2836844;84;20997;-69
2022/01/02 04:19:13;;;;;;;15.10;12.45;;;;;;;9.07;91.87;100474.61;2837257;84;21028;-67
2022/01/02 04:23:16;;;;;;;17.07;11.20;;;;;;;9.05;92.01;100463.26;2837035;84;21005;-68
2022/01/02 04:27:19;;;;;;;21.15;15.08;;;;;;;9.06;92.48;100449.03;2787127;85;21069;-69
2022/01/02 04:31:21;;;;;;;20.70;11.65;;;;;;;9.08;91.71;100449.77;2837248;84;21057;-68
2022/01/02 04:35:24;;;;;;;13.20;9.50;;;;;;;9.11;90.97;100445.55;2837145;84;21028;-68
2022/01/02 04:39:25;;;;;;;28.95;16.65;;;;;;;9.12;90.71;100447.24;2837119;84;21032;-68
2022/01/02 04:43:27;;;;;;;27.27;13.00;;;;;;;9.27;90.58;100475.33;2835313;82;21060;-68
2022/01/02 04:47:29;;;;;;;17.45;10.90;;;;;;;9.38;89.32;100463.91;2819775;84;21073;-68
2022/01/02 04:51:32;;;;;;;14.80;11.10;;;;;;;9.43;88.32;100459.56;2832192;84;21003;-68
2022/01/02 04:55:34;;;;;;;14.30;9.43;;;;;;;9.34;85.59;100445.19;2832158;83;21034;-68
2022/01/02 04:59:38;;;;;;;12.60;9.40;;;;;;;9.24;84.67;100426.45;2831705;83;21066;-68
2022/01/02 05:03:39;;;;;;;21.80;13.53;;;;;;;9.13;83.73;100423.73;2811362;83;21041;-68
2022/01/02 05:07:41;;;;;;;12.13;9.60;;;;;;;8.77;86.73;100450.64;2808348;84;21070;-68
2022/01/02 05:11:44;;;;;;;15.18;11.12;;;;;;;8.51;88.72;100444.91;2780655;85;20998;-68
2022/01/02 05:15:46;;;;;;;15.38;9.50;;;;;;;8.52;88.69;100445.27;2780665;85;21045;-68
2022/01/02 05:19:47;;;;;;;17.62;10.08;;;;;;;8.55;89.34;100436.27;2737854;86;21073;-68
2022/01/02 05:23:49;;;;;;;13.68;8.48;;;;;;;8.63;89.42;100439.20;2737888;87;21492;-67
2022/01/02 05:27:52;;;;;;;14.23;9.80;;;;;;;8.67;88.56;100435.41;2737921;87;21390;-68
2022/01/02 05:31:54;;;;;;;15.75;9.85;;;;;;;8.63;87.71;100433.91;2737635;87;21076;-68
2022/01/02 05:35:55;;;;;;;16.00;9.73;;;;;;;8.62;87.48;100430.88;2737577;87;21007;-68
2022/01/02 05:39:57;;;;;;;13.08;9.38;;;;;;;8.61;87.25;100419.91;2737482;85;21051;-68
2022/01/02 05:44:00;;;;;;;15.20;10.63;;;;;;;8.55;87.31;100408.42;2760090;85;21030;-69
2022/01/02 05:48:05;;;;;;;18.77;9.75;;;;;;;8.36;87.92;100403.57;2737552;87;21022;-67
2022/01/02 05:52:06;;;;;;;14.47;9.50;;;;;;;8.36;88.71;100384.52;2785493;85;21105;-68
2022/01/02 05:56:08;;;;;;;18.30;13.13;;;;;;;8.42;89.18;100392.03;2831869;84;20956;-67
2022/01/02 06:00:11;;;;;;;17.37;9.35;;;;;;;8.50;89.29;100394.17;2831893;84;21031;-68
2022/01/02 06:04:13;;;;;;;17.95;11.55;;;;;;;8.55;89.17;100388.08;2831934;84;21114;-68
2022/01/02 06:08:17;;;;;;;20.20;13.38;;;;;;;8.67;89.50;100389.00;2831710;84;20999;-68
2022/01/02 06:12:19;;;;;;;17.57;11.08;;;;;;;8.78;89.40;100383.37;2831679;84;21040;-68
2022/01/02 06:16:22;;;;;;;13.80;9.48;;;;;;;8.87;89.26;100394.66;2831786;84;21011;-68
2022/01/02 06:20:23;;;;;;;18.32;12.15;;;;;;;8.82;87.98;100375.55;2831981;84;21038;-68
2022/01/02 06:24:26;;;;;;;23.83;14.33;;;;;;;8.69;87.97;100371.63;2832750;81;21015;-68
2022/01/02 06:28:28;;;;;;;29.75;17.52;;;;;;;8.68;88.28;100361.52;2862302;82;20956;-68
2022/01/02 06:32:30;;;;;;;22.65;14.25;;;;;;;8.76;88.92;100368.92;2877106;82;21002;-68
2022/01/02 06:36:31;;;;;;;25.97;15.72;;;;;;;8.87;89.33;100365.48;2863485;82;21044;-68
2022/01/02 06:40:34;;;;;;;22.27;13.98;;;;;;;8.77;88.45;100356.48;2787883;85;21681;-68
2022/01/02 06:44:36;;;;;;;27.60;15.03;;;;;;;8.62;89.37;100350.01;2775084;85;21068;-68
2022/01/02 06:48:37;;;;;;;19.12;12.45;;;;;;;8.47;89.81;100333.88;2782460;85;20975;-68
2022/01/02 06:52:39;;;;;;;18.25;12.78;;;;;;;8.39;90.17;100327.80;2782329;85;21076;-68
2022/01/02 06:56:42;;;;;;;18.17;11.57;;;;;;;8.31;89.66;100324.84;2761858;86;21029;-68
2022/01/02 07:00:44;;;;;;;17.00;11.10;;;;;;;8.26;89.90;100331.82;2782585;85;21029;-68
2022/01/02 07:04:46;;;;;;;17.45;11.45;;;;;;;8.24;89.80;100319.13;2782379;85;21061;-68
2022/01/02 07:08:48;;;;;;;18.55;13.70;;;;;;;8.21;89.34;100318.03;2761801;86;21044;-68
2022/01/02 07:12:50;;;;;;;22.98;15.23;;;;;;;8.30;89.12;100314.73;2782361;85;21013;-68
2022/01/02 07:16:52;;;;;;;20.25;13.25;;;;;;;8.04;89.80;100309.47;2782225;85;21010;-68
2022/01/02 07:20:55;;;;;;;22.42;11.10;;;;;;;7.89;90.08;100310.58;2761810;86;21056;-68
2022/01/02 07:24:56;;;;;;;19.98;12.40;;;;;;;7.83;89.74;100307.38;2789913;83;21045;-68
2022/01/02 07:28:59;;;;;;;52.55;28.67;;;;;;;7.76;90.61;100286.27;2794272;84;20989;-68
2022/01/02 07:33:02;;;;;;;41.90;23.83;;;;;;;7.69;92.72;100275.75;2785520;84;21082;-68
2022/01/02 07:37:04;;;;;;;43.87;23.07;;;;;;;7.74;91.98;100278.05;2799640;84;21089;-68
2022/01/02 07:41:06;;;;;;;26.95;17.07;;;;;;;7.88;92.16;100276.61;2827239;84;21026;-68
2022/01/02 07:45:08;;;;;;;22.98;14.47;;;;;;;8.12;92.74;100289.06;2834422;83;21013;-68
2022/01/02 07:49:12;;;;;;;20.17;11.57;;;;;;;8.39;92.35;100288.88;2839469;84;21065;-68
2022/01/02 07:53:15;;;;;;;19.95;13.75;;;;;;;8.63;91.50;100281.43;2839187;84;21032;-67
2022/01/02 07:57:19;;;;;;;13.28;9.10;;;;;;;8.82;91.34;100278.27;2839919;84;21048;-68
2022/01/02 08:01:21;;;;;;;24.82;12.65;;;;;;;9.03;91.25;100274.96;2840044;83;21045;-69
2022/01/02 08:05:22;;;;;;;21.05;12.95;;;;;;;9.25;90.69;100280.82;2840239;84;21116;-69
2022/01/02 08:09:25;;;;;;;24.60;14.47;;;;;;;9.42;89.77;100281.31;2839969;84;21029;-70
2022/01/02 08:13:28;;;;;;;19.12;11.90;;;;;;;9.53;89.50;100264.08;2839782;84;21072;-71
2022/01/02 08:17:30;;;;;;;17.82;10.20;;;;;;;9.54;88.15;100255.64;2819031;82;20994;-69
2022/01/02 08:21:33;;;;;;;11.15;7.78;;;;;;;9.56;88.53;100246.57;2814553;82;21030;-69
2022/01/02 08:25:34;;;;;;;10.70;6.70;;;;;;;9.68;88.35;100246.59;2815517;84;21117;-68
2022/01/02 08:29:36;;;;;;;8.75;6.03;;;;;;;9.83;88.61;100248.03;2814522;84;21061;-70
2022/01/02 08:33:38;;;;;;;9.63;6.17;;;;;;;10.08;89.35;100243.41;2799038;83;21086;-73
2022/01/02 08:37:40;;;;;;;8.35;5.80;;;;;;;10.29;87.65;100243.95;2787444;85;21054;-70
2022/01/02 08:41:42;;;;;;;9.73;7.55;;;;;;;10.48;87.62;100234.51;2814132;84;21018;-73
2022/01/02 08:45:44;;;;;;;7.75;5.12;;;;;;;10.71;87.23;100220.13;2788369;82;21709;-70
2022/01/02 08:49:45;;;;;;;6.20;4.28;;;;;;;10.87;86.45;100232.16;2811417;84;21094;-72
2022/01/02 08:53:47;;;;;;;18.10;13.78;;;;;;;11.05;86.20;100228.91;2783428;85;21086;-70
2022/01/02 08:57:49;;;;;;;10.05;6.55;;;;;;;11.17;85.04;100217.20;2808257;82;21049;-70
2022/01/02 09:01:51;;;;;;;5.60;5.05;;;;;;;11.26;84.43;100208.91;2810679;82;22279;-70
2022/01/02 09:05:53;;;;;;;8.80;6.15;;;;;;;11.33;83.85;100206.56;2824070;82;21081;-67
2022/01/02 09:09:55;;;;;;;6.95;3.90;;;;;;;11.40;83.76;100204.58;2800981;84;21057;-68
2022/01/02 09:13:57;;;;;;;8.23;4.95;;;;;;;11.43;83.40;100208.80;2808683;84;21001;-69
2022/01/02 09:17:58;;;;;;;8.35;5.40;;;;;;;11.48;83.64;100211.05;2827746;82;20985;-68
2022/01/02 09:22:00;;;;;;;8.15;3.85;;;;;;;11.53;83.59;100204.34;2817009;84;21034;-68
2022/01/02 09:26:02;;;;;;;4.87;3.02;;;;;;;11.63;84.26;100211.55;2796288;82;21030;-68
2022/01/02 09:30:10;;;;;;;3.77;3.35;;;;;;;11.71;84.60;100197.05;2837355;84;20993;-68
2022/01/02 09:34:12;;;;;;;3.70;2.72;;;;;;;11.86;83.87;100197.03;2786505;84;21034;-68
2022/01/02 09:38:13;;;;;;;4.80;2.60;;;;;;;12.04;84.15;100200.40;2788895;82;21343;-68
2022/01/02 09:42:15;;;;;;;4.83;2.92;;;;;;;12.17;83.81;100207.27;2801225;84;21057;-68
2022/01/02 09:46:23;;;;;;;3.83;3.30;;;;;;;12.24;83.67;100206.59;2786943;82;21077;-68
2022/01/02 09:50:25;;;;;;;5.62;3.70;;;;;;;12.28;83.89;100209.35;2817160;82;21057;-68
2022/01/02 09:54:27;;;;;;;8.00;3.60;;;;;;;12.34;83.77;100201.27;2796680;84;21732;-68
2022/01/02 09:58:29;;;;;;;5.75;2.92;;;;;;;12.41;83.32;100195.73;2821125;82;20989;-68
2022/01/02 10:02:57;;;;;;;3.58;2.77;;;;;;;12.52;83.46;100176.08;2790024;85;20993;-69
2022/01/02 10:06:59;;;;;;;3.27;2.98;;;;;;;12.58;83.10;100181.34;2804909;82;20998;-68
2022/01/02 10:11:06;;;;;;;6.35;3.02;;;;;;;12.66;83.33;100194.81;2836958;84;21557;-67
2022/01/02 10:15:23;;;;;;;4.75;3.40;;;;;;;12.79;83.75;100190.51;2787696;85;20987;-67
2022/01/02 10:19:32;;;;;;;9.58;4.28;;;;;;;12.90;83.53;100188.17;2837497;84;21068;-69
2022/01/02 10:23:32;;;;;;;7.35;4.08;;;;;;;13.10;83.87;100177.45;2796555;84;21084;-69
2022/01/02 10:27:34;;;;;;;4.17;2.65;;;;;;;13.16;82.46;100165.34;2810552;82;20977;-69
2022/01/02 10:31:36;;;;;;;4.62;3.00;;;;;;;13.20;81.63;100171.59;2769693;85;20983;-68
2022/01/02 10:35:38;;;;;;;3.85;2.85;;;;;;;13.25;82.33;100167.98;2833358;82;21033;-68
2022/01/02 10:39:40;;;;;;;5.40;3.30;;;;;;;13.34;81.60;100159.59;2822240;84;21001;-69
2022/01/02 10:43:43;;;;;;;5.53;3.33;;;;;;;13.39;81.81;100153.30;2811963;82;23346;-70
2022/01/02 10:47:45;;;;;;;4.17;2.67;;;;;;;13.43;81.01;100129.33;2818946;84;21042;-69
2022/01/02 10:51:47;;;;;;;3.35;2.83;;;;;;;13.46;80.72;100122.00;2788281;85;21062;-67
2022/01/02 10:55:49;;;;;;;7.83;3.25;;;;;;;13.49;80.56;100106.52;2788380;85;21330;-70
2022/01/02 10:59:57;;;;;;;4.72;3.50;;;;;;;13.54;80.47;100104.75;2824280;82;21073;-69
2022/01/02 11:04:01;;;;;;;2.70;2.50;;;;;;;13.58;80.25;100100.78;2814864;82;21013;-68
2022/01/02 11:08:05;;;;;;;8.63;6.50;;;;;;;13.63;79.75;100110.52;2818914;82;21029;-78
2022/01/02 11:12:07;;;;;;;6.80;4.42;;;;;;;13.67;79.70;100111.06;2822199;82;21033;-71
2022/01/02 11:16:09;;;;;;;5.35;4.20;;;;;;;13.60;79.43;100114.00;2815732;82;21356;-72
2022/01/02 11:20:21;;;;;;;6.20;3.72;;;;;;;13.54;79.39;100106.91;2809782;84;21409;-76
2022/01/02 11:24:27;;;;;;;5.92;3.25;;;;;;;13.54;79.66;100097.55;2838496;83;21005;-72
2022/01/02 11:28:47;;;;;;;3.87;3.42;;;;;;;13.53;80.26;100089.19;2882044;82;21043;-68
2022/01/02 11:33:06;;;;;;;9.85;4.97;;;;;;;13.54;80.44;100089.54;2839135;82;21125;-70
2022/01/02 11:37:21;;;;;;;8.58;5.22;;;;;;;13.59;80.73;100082.93;2860632;81;21074;-70
2022/01/02 11:41:43;;;;;;;5.70;3.73;;;;;;;13.63;80.79;100068.27;2858230;81;21042;-69
2022/01/02 11:45:45;;;;;;;5.53;4.08;;;;;;;13.64;80.66;100077.96;2827409;84;21550;-70
2022/01/02 11:49:48;;;;;;;9.05;6.33;;;;;;;13.65;80.36;100068.44;2888935;82;21122;-69
2022/01/02 11:53:53;;;;;;;10.20;6.67;;;;;;;13.64;80.19;100065.94;2887453;82;20994;-69
2022/01/02 11:57:55;;;;;;;6.87;5.65;;;;;;;13.67;80.09;100054.45;2840039;84;21049;-70
2022/01/02 12:01:58;;;;;;;9.05;5.53;;;;;;;13.74;80.21;100052.50;2870683;82;21027;-69
2022/01/02 12:06:22;;;;;;;6.12;4.50;;;;;;;13.78;80.93;100045.38;2873109;82;21035;-69
2022/01/02 12:10:31;;;;;;;6.95;5.03;;;;;;;13.80;81.49;100039.38;2839181;83;21030;-71
2022/01/02 12:14:33;;;;;;;6.30;4.03;;;;;;;13.89;81.52;100029.59;2823110;84;21030;-71
2022/01/02 12:18:41;;;;;;;7.90;3.65;;;;;;;13.98;80.24;100029.17;2823046;84;21054;-70
2022/01/02 12:22:45;;;;;;;6.58;3.45;;;;;;;14.11;79.58;100025.58;2784096;85;21017;-69
2022/01/02 12:26:46;;;;;;;5.05;3.55;;;;;;;14.28;79.11;100016.34;2808494;82;21120;-70
2022/01/02 12:30:52;;;;;;;4.53;2.85;;;;;;;14.40;79.67;100010.22;2882862;82;21335;-70
2022/01/02 12:34:57;;;;;;;5.57;3.37;;;;;;;14.49;80.23;100001.75;2840148;84;20975;-68
2022/01/02 12:39:03;;;;;;;4.53;2.47;;;;;;;14.58;79.72;100003.48;2879045;82;21289;-67
2022/01/02 12:43:05;;;;;;;5.05;2.55;;;;;;;14.68;79.76;99974.75;2889637;82;20990;-67
2022/01/02 12:47:10;;;;;;;12.13;7.05;;;;;;;14.73;77.12;99978.80;2843701;81;21278;-67
2022/01/02 12:51:14;;;;;;;15.75;9.65;;;;;;;14.71;76.87;99971.78;2832492;83;20944;-67
2022/01/02 12:55:16;;;;;;;11.10;9.00;;;;;;;14.71;76.87;99971.78;2832151;83;21100;-67
2022/01/02 12:59:35;;;;;;;10.50;7.50;;;;;;;14.68;75.95;99969.39;2832160;84;21041;-67
2022/01/02 13:03:37;;;;;;;10.60;8.03;;;;;;;14.69;75.65;99962.22;2785093;85;21400;-66
2022/01/02 13:07:40;;;;;;;12.93;9.00;;;;;;;14.64;75.67;99945.29;2785705;84;21036;-67
2022/01/02 13:11:41;;;;;;;6.37;4.92;;;;;;;14.59;76.59;99950.30;2787897;85;21013;-67
2022/01/02 13:15:43;;;;;;;14.47;10.28;;;;;;;14.59;77.19;99940.93;2787959;85;21074;-67
2022/01/02 13:19:53;;;;;;;17.40;11.08;;;;;;;14.59;76.84;99932.90;2761315;85;21031;-67
2022/01/02 13:23:55;;;;;;;36.95;23.67;;;;;;;14.60;75.93;99922.53;2786549;85;21104;-67
2022/01/02 13:28:06;;;;;;;54.70;33.38;;;;;;;14.61;75.69;99921.53;2760138;84;21014;-71
2022/01/02 13:32:17;;;;;;;38.83;25.27;;;;;;;14.58;75.39;99912.48;2833947;83;21125;-70
2022/01/02 13:36:20;;;;;;;33.08;25.05;;;;;;;14.57;75.15;99911.63;2819736;84;21042;-70
2022/01/02 13:40:28;;;;;;;42.70;27.22;;;;;;;14.54;74.95;99903.08;2788097;85;21033;-73
2022/01/02 13:44:43;;;;;;;26.95;18.48;;;;;;;14.52;74.88;99895.23;2786958;84;21042;-71
2022/01/02 13:48:46;;;;;;;15.53;10.13;;;;;;;14.48;75.09;99892.55;2838336;84;21076;-69
2022/01/02 13:52:56;;;;;;;7.83;6.87;;;;;;;14.39;75.22;99882.30;2889424;82;21289;-74
2022/01/02 13:56:59;;;;;;;13.18;7.35;;;;;;;14.32;75.18;99882.59;2838935;83;21046;-71
2022/01/02 14:01:05;;;;;;;9.33;7.87;;;;;;;14.27;75.15;99871.05;2888961;82;21684;-73
2022/01/02 14:05:08;;;;;;;13.90;9.50;;;;;;;14.19;74.89;99852.78;2864978;81;21034;-73
2022/01/02 14:09:14;;;;;;;14.87;8.80;;;;;;;14.11;74.22;99837.53;2838882;82;21050;-72
2022/01/02 14:13:17;;;;;;;19.27;12.28;;;;;;;14.08;74.26;99832.00;2834992;84;21045;-72
2022/01/02 14:17:30;;;;;;;31.77;23.30;;;;;;;14.05;74.35;99826.97;2865750;81;21057;-73
2022/01/02 14:21:25;;;;;;;25.92;15.05;;;;;;;14.00;75.12;99823.95;2810814;82;21072;-73
2022/01/02 14:25:27;;;;;;;18.27;11.57;;;;;;;13.83;75.84;99810.48;2888812;82;21045;-70
2022/01/02 14:29:29;;;;;;;15.32;10.63;;;;;;;13.66;76.85;99820.73;2837805;82;21022;-70
2022/01/02 14:33:31;;;;;;;15.10;8.70;;;;;;;13.65;77.23;99806.52;2868641;81;21069;-73
2022/01/02 14:37:32;;;;;;;10.48;8.20;;;;;;;13.49;77.21;99784.56;2888952;82;21014;-73
2022/01/02 14:41:39;;;;;;;11.68;7.40;;;;;;;13.48;77.49;99780.21;2888862;82;21037;-71
2022/01/02 14:45:41;;;;;;;16.00;6.50;;;;;;;13.33;78.22;99770.57;2873011;82;21073;-70
2022/01/02 14:49:43;;;;;;;15.80;9.38;;;;;;;13.24;79.01;99752.31;2836967;84;21064;-69
2022/01/02 14:53:44;;;;;;;15.32;11.00;;;;;;;13.19;79.33;99742.61;2836812;84;21522;-70
2022/01/02 14:57:53;;;;;;;10.85;6.83;;;;;;;13.13;79.42;99728.04;2836807;84;20981;-70
2022/01/02 15:01:52;;;;;;;11.68;8.20;;;;;;;12.91;79.58;99710.68;2820353;82;21665;-71
2022/01/02 15:05:53;;;;;;;11.43;7.67;;;;;;;12.97;79.45;99710.56;2809980;84;20962;-70
2022/01/02 15:09:55;;;;;;;7.62;6.85;;;;;;;12.79;79.68;99726.10;2816413;82;21063;-70
2022/01/02 15:13:57;;;;;;;14.58;8.63;;;;;;;12.75;79.85;99715.88;2787242;84;21065;-70
2022/01/02 15:17:59;;;;;;;12.90;8.80;;;;;;;12.66;79.96;99710.48;2784662;85;21113;-70
2022/01/02 15:22:01;;;;;;;13.35;8.48;;;;;;;12.59;80.07;99710.77;2785605;82;21147;-70
2022/01/02 15:26:04;;;;;;;16.10;10.90;;;;;;;12.55;79.60;99717.38;2788792;85;21024;-70
2022/01/02 15:30:08;;;;;;;13.48;8.23;;;;;;;12.53;79.54;99708.70;2797132;83;21052;-71
2022/01/02 15:34:10;;;;;;;12.85;8.93;;;;;;;12.47;79.22;99704.80;2836578;84;20993;-70
2022/01/02 15:38:12;;;;;;;16.85;10.15;;;;;;;12.46;79.15;99694.30;2787087;85;21054;-70
2022/01/02 15:42:13;;;;;;;12.58;7.90;;;;;;;12.47;78.86;99679.97;2836456;84;21045;-75
2022/01/02 15:46:15;;;;;;;8.45;7.00;;;;;;;12.48;78.86;99675.83;2856462;82;20982;-69
2022/01/02 15:50:19;;;;;;;13.03;7.83;;;;;;;12.41;78.77;99679.60;2839015;84;21065;-70
2022/01/02 15:54:21;;;;;;;8.60;6.50;;;;;;;12.43;78.74;99677.62;2889572;82;21034;-71
2022/01/02 15:58:22;;;;;;;13.83;7.47;;;;;;;12.38;78.60;99673.24;2838888;83;21030;-70
2022/01/02 16:02:24;;;;;;;10.03;7.45;;;;;;;12.35;78.46;99683.37;2889188;82;21072;-70
2022/01/02 16:06:26;;;;;;;8.25;5.47;;;;;;;12.32;78.25;99690.34;2838676;83;20970;-70
2022/01/02 16:10:27;;;;;;;7.45;4.90;;;;;;;12.35;77.90;99685.52;2888872;82;21026;-69
2022/01/02 16:14:29;;;;;;;10.28;6.10;;;;;;;12.31;77.61;99673.49;2839114;82;21601;-70
2022/01/02 16:18:30;;;;;;;6.80;5.80;;;;;;;12.40;77.25;99652.59;2889084;82;21065;-69
2022/01/02 16:22:32;;;;;;;11.30;5.45;;;;;;;12.38;76.85;99644.39;2839114;82;21042;-70
2022/01/02 16:26:34;;;;;;;12.45;6.78;;;;;;;12.39;76.74;99622.05;2889199;82;21037;-69
2022/01/02 16:30:38;;;;;;;10.72;7.55;;;;;;;12.39;76.61;99608.24;2839171;82;21085;-70
2022/01/02 16:34:39;;;;;;;9.88;6.50;;;;;;;12.41;76.56;99590.73;2889303;82;21007;-71
2022/01/02 16:38:46;;;;;;;13.83;7.00;;;;;;;12.45;76.26;99587.27;2839252;83;21689;-70
2022/01/02 16:42:46;;;;;;;9.50;7.70;;;;;;;12.51;76.13;99564.81;2889490;82;21104;-70
2022/01/02 16:46:48;;;;;;;15.20;10.03;;;;;;;12.47;75.88;99559.42;2836620;84;21109;-70
2022/01/02 16:50:49;;;;;;;12.37;7.17;;;;;;;12.52;75.85;99564.30;2834670;84;21062;-70
2022/01/02 16:54:51;;;;;;;10.72;7.20;;;;;;;12.43;75.94;99558.92;2834708;84;21018;-69
2022/01/02 16:58:55;;;;;;;15.18;7.55;;;;;;;12.44;76.23;99571.75;2834735;84;21011;-69
2022/01/02 17:03:00;;;;;;;9.63;6.50;;;;;;;12.41;76.40;99563.58;2834717;84;21014;-69
2022/01/02 17:07:01;;;;;;;10.00;6.55;;;;;;;12.43;76.25;99545.59;2787470;85;21050;-69
2022/01/02 17:11:05;;;;;;;9.48;5.47;;;;;;;12.38;75.88;99554.56;2834687;84;21015;-69
2022/01/02 17:15:08;;;;;;;8.70;6.15;;;;;;;12.40;75.61;99569.05;2787391;85;21081;-69
2022/01/02 17:19:10;;;;;;;7.25;4.87;;;;;;;12.43;74.96;99557.59;2834327;84;21010;-69
2022/01/02 17:23:13;;;;;;;8.35;5.45;;;;;;;12.37;74.82;99555.52;2834651;84;20986;-71
2022/01/02 17:27:15;;;;;;;9.95;5.75;;;;;;;12.37;74.79;99552.86;2833698;84;21061;-72
2022/01/02 17:31:17;;;;;;;8.05;6.22;;;;;;;12.35;74.54;99555.36;2812714;84;21057;-73
2022/01/02 17:35:21;;;;;;;9.63;6.35;;;;;;;12.25;74.54;99560.78;2788508;85;21066;-73
2022/01/02 17:39:22;;;;;;;11.25;7.47;;;;;;;12.14;74.68;99570.69;2788504;85;21057;-74
2022/01/02 17:43:24;;;;;;;10.18;6.67;;;;;;;12.00;75.02;99581.37;2788734;85;21018;-73
2022/01/02 17:47:25;;;;;;;7.00;5.15;;;;;;;11.93;75.16;99575.46;2812989;84;20979;-76
2022/01/02 17:51:27;;;;;;;6.50;4.78;;;;;;;11.84;75.52;99592.72;2836099;84;21000;-71
2022/01/02 17:55:29;;;;;;;9.40;5.83;;;;;;;11.72;76.01;99596.58;2835943;84;21019;-71
2022/01/02 17:59:32;;;;;;;6.92;5.08;;;;;;;11.64;76.52;99597.83;2835438;82;21007;-73
2022/01/02 18:03:34;;;;;;;7.60;5.87;;;;;;;11.50;77.19;99605.33;2905957;81;21038;-75
2022/01/02 18:07:36;;;;;;;6.05;4.47;;;;;;;11.39;77.50;99608.17;2831746;84;20976;-75
2022/01/02 18:11:40;;;;;;;6.35;4.72;;;;;;;11.32;77.70;99605.29;2883362;82;21039;-75
2022/01/02 18:15:44;;;;;;;8.00;5.17;;;;;;;11.33;77.77;99607.45;2883981;82;20956;-72
2022/01/02 18:19:45;;;;;;;7.42;5.92;;;;;;;11.34;77.66;99609.12;2883734;82;20992;-74
2022/01/02 18:23:54;;;;;;;13.53;5.58;;;;;;;11.39;77.74;99606.84;2884261;82;21264;-74
2022/01/02 18:27:51;;;;;;;7.55;4.83;;;;;;;11.41;77.33;99615.55;2883413;82;21004;-73
2022/01/02 18:31:53;;;;;;;12.75;5.45;;;;;;;11.46;76.76;99621.74;2884226;82;20993;-75
2022/01/02 18:35:54;;;;;;;11.28;5.70;;;;;;;11.53;76.78;99607.69;2884316;82;20989;-74
2022/01/02 18:39:56;;;;;;;9.23;5.87;;;;;;;11.60;76.83;99611.11;2884662;82;20973;-73
2022/01/02 18:43:59;;;;;;;10.75;5.45;;;;;;;11.66;77.13;99603.33;2884556;82;21004;-74
2022/01/02 18:48:01;;;;;;;7.10;3.50;;;;;;;11.89;75.89;99600.74;2885278;82;21047;-74
2022/01/02 18:52:03;;;;;;;4.35;3.75;;;;;;;12.22;74.63;99605.91;2886437;82;21032;-72
2022/01/02 18:56:05;;;;;;;8.05;4.75;;;;;;;12.47;73.87;99606.63;2886559;82;21036;-75